Time;durP1;ratioP1;P1;durP2;ratioP2;P2;SDS_P1;SDS_P2;PMS_P1;PMS_P2;Temp;Humidity;BMP_temperature;BMP_pressure;BME280_temperature;BME280_humidity;BME280_pressure;Samples;Min_cycle;Max_cycle;Signal;HPM_P1;HPM_P2
2023/07/17 00:01:42;;;;;;;4.68;1.80;;;19.40;89.10;;;;;;4132749;28;20126;-52
2023/07/17 00:03:45;;;;;;;3.25;1.63;;;19.40;89.00;;;;;;4131959;28;20054;-51
2023/07/17 00:05:47;;;;;;;3.10;1.60;;;19.40;89.30;;;;;;4132682;28;20078;-51
2023/07/17 00:07:49;;;;;;;3.92;1.65;;;19.40;89.50;;;;;;4132769;28;20046;-52
2023/07/17 00:09:51;;;;;;;7.60;1.55;;;19.40;89.20;;;;;;4132719;28;20116;-52
2023/07/17 00:11:55;;;;;;;4.40;1.95;;;19.40;89.10;;;;;;4132760;28;20448;-52
2023/07/17 00:13:57;;;;;;;3.80;1.73;;;19.40;89.30;;;;;;4131845;28;20054;-52
2023/07/17 00:15:59;;;;;;;6.63;2.00;;;19.40;89.10;;;;;;4130867;28;20046;-52
2023/07/17 00:18:01;;;;;;;4.78;1.88;;;19.30;89.00;;;;;;4132615;28;20054;-52
2023/07/17 00:20:09;;;;;;;3.22;1.75;;;19.40;89.10;;;;;;4132559;28;20125;-50
2023/07/17 00:22:11;;;;;;;5.97;2.15;;;19.40;89.10;;;;;;4132598;28;20046;-51
2023/07/17 00:24:13;;;;;;;4.55;2.03;;;19.50;89.20;;;;;;4131897;28;20133;-51
2023/07/17 00:26:16;;;;;;;4.82;2.15;;;19.40;89.20;;;;;;4132160;28;20043;-51
2023/07/17 00:28:19;;;;;;;4.68;2.25;;;19.40;89.50;;;;;;4132331;28;20046;-51
2023/07/17 00:30:21;;;;;;;5.10;2.05;;;19.40;89.70;;;;;;4132208;28;20417;-52
2023/07/17 00:32:23;;;;;;;4.55;2.08;;;19.40;89.70;;;;;;4132592;28;20050;-50
2023/07/17 00:34:26;;;;;;;3.10;2.10;;;19.30;89.70;;;;;;4131628;28;20533;-51
2023/07/17 00:36:28;;;;;;;5.85;2.13;;;19.30;89.80;;;;;;4132254;28;20104;-51
2023/07/17 00:38:31;;;;;;;8.07;2.83;;;19.30;89.80;;;;;;4132155;28;20077;-51
2023/07/17 00:40:39;;;;;;;6.45;2.20;;;19.30;89.80;;;;;;4132361;28;20050;-51
2023/07/17 00:42:41;;;;;;;4.15;1.92;;;19.30;89.90;;;;;;4131954;28;20061;-51
2023/07/17 00:44:45;;;;;;;3.58;1.73;;;19.20;90.00;;;;;;4131307;28;20101;-50
2023/07/17 00:46:47;;;;;;;4.25;2.08;;;19.20;90.00;;;;;;4132235;28;20112;-51
2023/07/17 00:48:50;;;;;;;6.28;2.33;;;19.20;90.10;;;;;;4132458;28;20050;-51
2023/07/17 00:50:52;;;;;;;4.63;2.13;;;19.10;90.20;;;;;;4132191;28;20406;-51
2023/07/17 00:52:55;;;;;;;5.55;2.03;;;19.20;90.00;;;;;;4131682;28;20082;-51
2023/07/17 00:54:57;;;;;;;9.50;3.10;;;19.20;90.00;;;;;;4131497;28;20125;-51
2023/07/17 00:57:04;;;;;;;5.40;2.25;;;19.20;90.00;;;;;;4130634;28;20047;-51
2023/07/17 00:59:06;;;;;;;5.32;2.55;;;19.10;90.00;;;;;;4130620;28;20050;-51
2023/07/17 01:01:11;;;;;;;4.80;2.50;;;19.10;90.00;;;;;;4132593;28;20050;-51
2023/07/17 01:03:14;;;;;;;;;;;19.20;90.00;;;;;;4131714;28;20145;-51
2023/07/17 01:05:16;;;;;;;4.82;2.30;;;19.10;89.60;;;;;;4131965;28;20025;-51
2023/07/17 01:07:18;;;;;;;3.55;1.95;;;19.10;90.20;;;;;;4131722;28;20042;-52
2023/07/17 01:09:21;;;;;;;4.70;2.30;;;19.20;88.90;;;;;;4131944;28;20072;-50
2023/07/17 01:11:24;;;;;;;6.93;2.38;;;19.20;88.80;;;;;;4131944;28;20081;-51
2023/07/17 01:13:26;;;;;;;7.22;2.58;;;19.10;88.60;;;;;;4130489;28;20405;-49
2023/07/17 01:15:28;;;;;;;7.15;3.05;;;19.20;88.30;;;;;;4131678;28;20046;-50
2023/07/17 01:17:32;;;;;;;7.95;2.20;;;19.10;88.40;;;;;;4131840;28;20046;-49
2023/07/17 01:19:34;;;;;;;5.40;2.30;;;19.20;88.50;;;;;;4131700;28;20065;-50
2023/07/17 01:21:42;;;;;;;4.78;2.50;;;19.20;88.70;;;;;;4131783;28;20042;-49
2023/07/17 01:23:46;;;;;;;5.38;2.35;;;19.20;88.90;;;;;;4130658;28;20121;-50
2023/07/17 01:25:48;;;;;;;6.35;3.17;;;19.20;89.00;;;;;;4131363;28;20082;-49
2023/07/17 01:27:50;;;;;;;4.18;2.50;;;19.10;89.10;;;;;;4130882;28;20405;-49
2023/07/17 01:29:52;;;;;;;5.32;2.70;;;19.10;89.30;;;;;;4120775;28;20050;-50
2023/07/17 01:31:54;;;;;;;6.30;2.80;;;19.10;89.40;;;;;;4131878;28;20546;-50
2023/07/17 01:33:56;;;;;;;8.15;2.78;;;19.10;89.50;;;;;;4130419;28;20467;-49
2023/07/17 01:35:59;;;;;;;8.02;2.55;;;19.10;89.70;;;;;;4131588;28;20049;-49
2023/07/17 01:38:01;;;;;;;6.07;2.42;;;19.00;89.80;;;;;;4131259;28;20117;-49
2023/07/17 01:40:07;;;;;;;7.07;2.88;;;19.00;90.00;;;;;;4131614;28;20409;-49
2023/07/17 01:42:09;;;;;;;7.03;2.55;;;19.00;90.10;;;;;;4131496;28;20058;-48
2023/07/17 01:44:11;;;;;;;4.18;2.53;;;19.00;90.40;;;;;;4129839;28;20121;-50
2023/07/17 01:46:13;;;;;;;5.93;2.53;;;19.00;90.40;;;;;;4130066;28;20126;-49
2023/07/17 01:48:17;;;;;;;4.80;2.35;;;19.00;90.30;;;;;;4131251;28;20433;-50
2023/07/17 01:50:19;;;;;;;8.23;2.65;;;19.00;90.30;;;;;;4130906;28;20093;-49
2023/07/17 01:52:21;;;;;;;4.88;2.70;;;19.00;90.30;;;;;;4130338;28;20050;-49
2023/07/17 01:54:23;;;;;;;4.80;2.45;;;19.00;90.20;;;;;;4130050;28;20038;-53
2023/07/17 01:56:28;;;;;;;11.55;2.90;;;19.00;90.30;;;;;;4131298;28;20049;-50
2023/07/17 01:58:30;;;;;;;6.15;2.63;;;19.00;90.30;;;;;;4130721;28;20046;-49
2023/07/17 02:00:33;;;;;;;6.32;2.20;;;19.00;90.20;;;;;;4131186;28;20077;-50
2023/07/17 02:02:35;;;;;;;6.20;2.33;;;19.00;90.20;;;;;;4131423;28;20046;-49
2023/07/17 02:04:37;;;;;;;5.10;2.40;;;18.90;90.40;;;;;;4130007;28;20046;-49
2023/07/17 02:06:39;;;;;;;4.63;2.45;;;18.90;90.50;;;;;;4131135;28;20046;-49
2023/07/17 02:08:41;;;;;;;4.90;2.13;;;18.90;90.40;;;;;;4131080;28;20408;-50
2023/07/17 02:10:45;;;;;;;5.65;1.88;;;18.90;90.10;;;;;;4130907;28;20093;-49
2023/07/17 02:12:49;;;;;;;4.80;2.33;;;18.90;90.00;;;;;;4131003;28;20043;-50
2023/07/17 02:14:51;;;;;;;5.70;2.00;;;18.90;89.80;;;;;;4129866;28;20129;-50
2023/07/17 02:16:53;;;;;;;6.53;2.22;;;18.90;89.50;;;;;;4130890;28;20046;-49
2023/07/17 02:18:55;;;;;;;9.05;2.65;;;18.90;89.40;;;;;;4131044;28;20046;-49
2023/07/17 02:20:57;;;;;;;2.92;1.85;;;18.90;89.30;;;;;;4129793;28;20054;-49
2023/07/17 02:22:59;;;;;;;5.70;2.30;;;18.90;88.90;;;;;;4130976;28;20054;-50
2023/07/17 02:25:01;;;;;;;5.43;2.28;;;18.90;88.70;;;;;;4129570;28;20038;-50
2023/07/17 02:27:04;;;;;;;4.57;2.13;;;18.90;88.60;;;;;;4130893;28;20050;-50
2023/07/17 02:29:07;;;;;;;4.35;1.98;;;18.90;88.40;;;;;;4131151;28;20368;-49
2023/07/17 02:31:09;;;;;;;5.72;2.08;;;18.90;88.20;;;;;;4130725;28;20053;-52
2023/07/17 02:33:11;;;;;;;4.80;2.35;;;18.90;88.50;;;;;;4130776;28;20050;-50
2023/07/17 02:35:14;;;;;;;6.03;3.00;;;18.90;89.20;;;;;;4129883;28;20042;-50
2023/07/17 02:37:16;;;;;;;3.42;2.05;;;18.90;88.90;;;;;;4130913;28;20047;-49
2023/07/17 02:39:20;;;;;;;5.47;2.60;;;18.90;89.10;;;;;;4131130;28;20077;-50
2023/07/17 02:41:23;;;;;;;4.80;1.90;;;18.90;89.20;;;;;;4130450;28;20047;-49
2023/07/17 02:43:25;;;;;;;5.35;2.40;;;18.90;89.40;;;;;;4130088;28;20053;-50
2023/07/17 02:45:28;;;;;;;4.20;2.13;;;18.90;90.00;;;;;;4130464;28;20121;-49
2023/07/17 02:47:30;;;;;;;3.20;2.30;;;18.90;89.50;;;;;;4130731;28;20494;-49
2023/07/17 02:49:33;;;;;;;6.28;2.30;;;18.90;89.50;;;;;;4131161;28;20085;-49
2023/07/17 02:51:35;;;;;;;5.45;2.30;;;18.90;89.70;;;;;;4130606;28;20050;-50
2023/07/17 02:53:37;;;;;;;5.88;2.58;;;18.90;90.00;;;;;;4129948;28;20129;-49
2023/07/17 02:55:39;;;;;;;4.78;2.25;;;18.90;89.90;;;;;;4130351;28;20752;-49
2023/07/17 02:57:41;;;;;;;5.13;2.63;;;18.90;90.10;;;;;;4130677;28;20053;-49
2023/07/17 02:59:43;;;;;;;4.03;2.17;;;18.90;90.00;;;;;;4130574;28;20062;-49
2023/07/17 03:01:48;;;;;;;4.10;2.40;;;18.90;90.30;;;;;;4130714;28;20170;-50
2023/07/17 03:03:50;;;;;;;7.90;2.38;;;18.80;90.40;;;;;;4132639;28;20139;-49
2023/07/17 03:05:56;;;;;;;5.38;2.20;;;18.80;90.40;;;;;;4133422;28;20101;-49
2023/07/17 03:07:58;;;;;;;5.40;2.45;;;18.80;90.40;;;;;;4133835;28;20039;-49
2023/07/17 03:10:00;;;;;;;5.70;2.40;;;18.80;90.40;;;;;;4133453;28;20421;-50
2023/07/17 03:12:02;;;;;;;6.03;2.60;;;18.70;90.40;;;;;;4133673;28;20048;-50
2023/07/17 03:14:04;;;;;;;4.63;2.22;;;18.70;90.50;;;;;;4132725;28;20527;-49
2023/07/17 03:16:06;;;;;;;6.38;2.47;;;18.70;90.50;;;;;;4133761;28;20046;-49
2023/07/17 03:18:09;;;;;;;8.32;3.17;;;18.60;90.50;;;;;;4133587;28;20054;-47
2023/07/17 03:20:13;;;;;;;5.90;2.65;;;18.60;90.60;;;;;;4133600;28;20064;-49
2023/07/17 03:22:15;;;;;;;4.18;2.55;;;18.60;90.60;;;;;;4133534;28;20082;-48
2023/07/17 03:24:17;;;;;;;5.30;2.58;;;18.60;90.60;;;;;;4132331;28;20074;-49
2023/07/17 03:26:19;;;;;;;6.45;2.22;;;18.60;90.70;;;;;;4133230;28;20105;-49
2023/07/17 03:28:22;;;;;;;7.68;2.72;;;18.60;90.80;;;;;;4129710;28;20046;-50
2023/07/17 03:30:24;;;;;;;7.57;2.47;;;18.50;91.00;;;;;;4132256;28;20508;-49
2023/07/17 03:32:26;;;;;;;7.97;2.75;;;18.50;90.70;;;;;;4133192;28;20081;-50
2023/07/17 03:34:29;;;;;;;7.70;2.70;;;18.60;90.60;;;;;;4132290;28;20046;-51
2023/07/17 03:36:31;;;;;;;6.78;2.50;;;18.60;90.50;;;;;;4133298;28;20049;-52
2023/07/17 03:38:33;;;;;;;6.05;2.08;;;18.70;90.60;;;;;;4132861;28;20054;-51
2023/07/17 03:40:35;;;;;;;4.80;2.22;;;18.60;90.50;;;;;;4133372;28;20125;-50
2023/07/17 03:42:37;;;;;;;5.15;2.03;;;18.70;90.30;;;;;;4131882;28;20046;-51
2023/07/17 03:44:40;;;;;;;3.85;2.13;;;18.70;90.20;;;;;;4132386;28;20096;-51
2023/07/17 03:46:42;;;;;;;5.20;1.90;;;18.60;90.30;;;;;;4133293;28;20114;-50
2023/07/17 03:48:44;;;;;;;5.00;2.15;;;18.60;90.20;;;;;;4132058;28;20047;-49
2023/07/17 03:50:48;;;;;;;6.13;2.33;;;18.60;90.00;;;;;;4133013;28;20046;-49
2023/07/17 03:52:50;;;;;;;5.45;2.30;;;18.60;90.00;;;;;;4132569;28;20050;-49
2023/07/17 03:54:53;;;;;;;9.80;2.75;;;18.60;89.80;;;;;;4132363;28;20128;-49
2023/07/17 03:56:55;;;;;;;5.70;2.38;;;18.50;89.80;;;;;;4132999;28;20070;-48
2023/07/17 03:58:58;;;;;;;5.40;1.83;;;18.60;89.50;;;;;;4132731;28;20798;-52
2023/07/17 04:01:00;;;;;;;4.25;1.88;;;18.60;89.60;;;;;;4133106;28;20050;-49
2023/07/17 04:03:03;;;;;;;6.30;2.00;;;18.60;89.30;;;;;;4132649;28;20049;-49
2023/07/17 04:05:06;;;;;;;7.25;2.20;;;18.50;89.40;;;;;;4131905;28;20046;-48
2023/07/17 04:07:09;;;;;;;6.28;1.83;;;18.60;89.20;;;;;;4132991;28;20046;-51
2023/07/17 04:09:11;;;;;;;4.53;1.92;;;18.60;89.20;;;;;;4132538;28;20089;-49
2023/07/17 04:11:14;;;;;;;3.58;1.67;;;18.60;89.10;;;;;;4132812;28;20048;-49
2023/07/17 04:13:17;;;;;;;7.50;2.22;;;18.50;89.40;;;;;;4130876;28;20496;-50
2023/07/17 04:15:19;;;;;;;8.27;2.40;;;18.50;89.40;;;;;;4131811;28;20049;-49
2023/07/17 04:17:21;;;;;;;6.30;2.17;;;18.50;89.50;;;;;;4132823;28;20117;-50
2023/07/17 04:19:24;;;;;;;5.20;1.83;;;18.50;89.90;;;;;;4132566;28;20101;-49
2023/07/17 04:21:26;;;;;;;4.57;1.77;;;18.50;89.40;;;;;;4132585;28;20054;-51
2023/07/17 04:23:30;;;;;;;6.90;1.85;;;18.40;89.70;;;;;;4132133;28;20042;-52
2023/07/17 04:25:32;;;;;;;6.63;2.08;;;18.40;89.60;;;;;;4131751;28;20477;-51
2023/07/17 04:27:34;;;;;;;5.07;1.90;;;18.50;89.60;;;;;;4132728;28;20061;-52
2023/07/17 04:29:36;;;;;;;6.82;2.10;;;18.40;89.70;;;;;;4131182;28;20046;-52
2023/07/17 04:31:38;;;;;;;6.70;2.10;;;18.50;89.60;;;;;;4115268;28;20492;-52
2023/07/17 04:33:41;;;;;;;8.63;2.00;;;18.40;89.70;;;;;;4132022;28;20498;-54
2023/07/17 04:35:43;;;;;;;4.22;1.88;;;18.40;89.90;;;;;;4132073;28;20379;-52
2023/07/17 04:37:45;;;;;;;5.60;2.05;;;18.40;90.00;;;;;;4132440;28;20050;-52
2023/07/17 04:39:48;;;;;;;5.63;2.45;;;18.30;90.10;;;;;;4132327;28;20054;-52
2023/07/17 04:41:52;;;;;;;4.93;2.00;;;18.40;90.20;;;;;;4132547;28;20046;-52
2023/07/17 04:43:54;;;;;;;7.35;2.35;;;18.40;90.40;;;;;;4131483;28;20102;-52
2023/07/17 04:45:56;;;;;;;8.15;2.38;;;18.30;90.30;;;;;;4132156;28;20071;-52
2023/07/17 04:47:58;;;;;;;4.90;2.08;;;18.30;90.30;;;;;;4132317;28;20133;-52
2023/07/17 04:50:00;;;;;;;7.40;2.05;;;18.40;90.40;;;;;;4132056;28;20057;-51
2023/07/17 04:52:03;;;;;;;5.85;1.95;;;18.40;90.40;;;;;;4131732;28;20384;-52
2023/07/17 04:54:05;;;;;;;6.55;2.20;;;18.40;90.40;;;;;;4131232;28;20046;-51
2023/07/17 04:56:08;;;;;;;8.95;2.22;;;18.40;90.60;;;;;;4132098;28;20065;-51
2023/07/17 04:58:10;;;;;;;5.43;1.92;;;18.40;90.60;;;;;;4132056;28;20050;-51
2023/07/17 05:00:13;;;;;;;6.45;2.28;;;18.40;90.50;;;;;;4116110;28;20097;-52
2023/07/17 05:02:15;;;;;;;5.72;2.00;;;18.40;90.50;;;;;;4114874;28;20269;-51
2023/07/17 05:04:18;;;;;;;5.43;1.90;;;18.50;90.50;;;;;;4115102;28;20443;-51
2023/07/17 05:06:20;;;;;;;12.93;2.33;;;18.50;90.50;;;;;;4115326;28;20074;-51
2023/07/17 05:08:26;;;;;;;4.97;1.95;;;18.40;90.50;;;;;;4116014;28;20532;-52
2023/07/17 05:10:28;;;;;;;8.90;1.90;;;18.40;90.60;;;;;;4115862;28;20054;-51
2023/07/17 05:12:31;;;;;;;6.10;2.03;;;18.50;90.40;;;;;;4115783;28;20473;-51
2023/07/17 05:14:33;;;;;;;8.85;1.95;;;18.50;90.70;;;;;;4115100;28;20414;-52
2023/07/17 05:16:35;;;;;;;5.75;2.00;;;18.50;90.50;;;;;;4115708;28;20254;-52
2023/07/17 05:18:37;;;;;;;9.38;2.13;;;18.50;90.50;;;;;;4115686;28;20130;-51
2023/07/17 05:20:43;;;;;;;5.97;1.75;;;18.50;90.50;;;;;;4115169;28;20050;-51
2023/07/17 05:22:45;;;;;;;6.93;1.73;;;18.60;90.40;;;;;;4115665;28;20046;-49
2023/07/17 05:24:47;;;;;;;10.77;2.55;;;18.60;90.30;;;;;;4114516;28;20050;-50
2023/07/17 05:26:49;;;;;;;7.40;1.73;;;18.60;90.30;;;;;;4114831;28;20047;-52
2023/07/17 05:28:52;;;;;;;9.50;1.92;;;18.60;90.30;;;;;;4115585;28;20042;-52
2023/07/17 05:30:56;;;;;;;13.60;1.83;;;18.60;90.40;;;;;;4115484;28;20054;-52
2023/07/17 05:32:58;;;;;;;11.82;2.47;;;18.70;90.40;;;;;;4104867;28;20046;-52
2023/07/17 05:35:00;;;;;;;7.07;1.95;;;18.70;90.40;;;;;;4114214;28;20418;-51
2023/07/17 05:37:03;;;;;;;6.68;2.10;;;18.70;90.30;;;;;;4115613;28;20129;-51
2023/07/17 05:39:05;;;;;;;6.95;1.65;;;18.70;90.30;;;;;;4115601;28;20085;-52
2023/07/17 05:41:07;;;;;;;5.40;2.00;;;18.70;90.40;;;;;;4115421;28;20101;-52
2023/07/17 05:43:09;;;;;;;5.97;1.73;;;18.70;90.30;;;;;;4115414;28;20121;-51
2023/07/17 05:45:12;;;;;;;5.00;2.13;;;18.70;90.50;;;;;;4113261;28;20129;-51
2023/07/17 05:47:14;;;;;;;7.55;2.03;;;18.70;90.40;;;;;;4114968;28;20047;-52
2023/07/17 05:49:16;;;;;;;4.82;1.70;;;18.70;90.20;;;;;;4115101;28;20053;-52
2023/07/17 05:51:18;;;;;;;7.78;1.98;;;18.80;90.30;;;;;;4115007;28;20051;-52
2023/07/17 05:53:21;;;;;;;9.60;2.10;;;18.70;90.30;;;;;;4115164;28;20043;-52
2023/07/17 05:55:23;;;;;;;5.93;1.88;;;18.80;90.20;;;;;;4114670;28;20142;-52
2023/07/17 05:57:25;;;;;;;8.45;2.25;;;18.70;90.10;;;;;;4114941;28;20045;-52
2023/07/17 05:59:27;;;;;;;6.82;2.00;;;18.70;90.30;;;;;;4125069;28;20143;-52
2023/07/17 06:01:31;;;;;;;6.57;1.70;;;18.80;90.20;;;;;;4131388;28;20073;-51
2023/07/17 06:03:33;;;;;;;6.07;1.77;;;18.80;90.20;;;;;;4127373;28;20057;-52
2023/07/17 06:05:37;;;;;;;8.73;2.30;;;18.80;90.20;;;;;;4130545;28;20405;-52
2023/07/17 06:07:39;;;;;;;4.40;1.80;;;18.80;90.10;;;;;;4131090;28;20409;-52
2023/07/17 06:09:41;;;;;;;7.85;2.40;;;18.80;90.10;;;;;;4130976;28;20085;-52
2023/07/17 06:11:43;;;;;;;9.77;2.28;;;18.90;90.00;;;;;;4131172;28;20417;-51
2023/07/17 06:13:45;;;;;;;8.32;2.03;;;18.90;90.10;;;;;;4130216;28;20046;-52
2023/07/17 06:15:47;;;;;;;4.78;1.88;;;18.90;90.10;;;;;;4130306;28;20057;-52
2023/07/17 06:17:51;;;;;;;7.78;2.47;;;19.00;90.20;;;;;;4130443;28;20061;-52
2023/07/17 06:19:53;;;;;;;9.43;2.67;;;19.00;90.10;;;;;;4131287;28;20042;-52
2023/07/17 06:21:55;;;;;;;7.93;2.30;;;19.00;90.10;;;;;;4131083;28;20066;-49
2023/07/17 06:23:57;;;;;;;9.43;2.67;;;19.00;89.80;;;;;;4130803;28;20505;-49
2023/07/17 06:26:00;;;;;;;9.98;2.67;;;18.90;89.60;;;;;;4130156;28;20078;-49
2023/07/17 06:28:04;;;;;;;8.18;2.47;;;19.00;89.80;;;;;;4139112;28;20429;-49
2023/07/17 06:30:07;;;;;;;7.03;2.10;;;19.00;90.00;;;;;;4130931;28;20043;-51
2023/07/17 06:32:09;;;;;;;7.22;2.65;;;19.00;89.80;;;;;;4131078;28;20223;-48
2023/07/17 06:34:13;;;;;;;12.95;2.35;;;19.10;90.20;;;;;;4130229;28;20047;-49
2023/07/17 06:36:15;;;;;;;8.35;2.47;;;19.10;89.70;;;;;;4131160;28;20049;-50
2023/07/17 06:38:17;;;;;;;8.93;2.58;;;19.10;90.10;;;;;;4134008;28;20046;-49
2023/07/17 06:40:19;;;;;;;7.55;2.45;;;19.10;89.90;;;;;;4134319;28;20287;-49
2023/07/17 06:42:21;;;;;;;7.65;2.50;;;19.10;89.40;;;;;;4134536;28;20046;-49
2023/07/17 06:44:23;;;;;;;8.45;2.53;;;19.20;89.50;;;;;;4133345;28;20080;-49
2023/07/17 06:46:25;;;;;;;14.98;3.15;;;19.20;89.30;;;;;;4133990;28;20057;-49
2023/07/17 06:48:27;;;;;;;11.18;2.40;;;19.30;88.70;;;;;;4133685;28;20046;-51
2023/07/17 06:50:31;;;;;;;12.55;2.63;;;19.30;88.60;;;;;;4134084;28;20121;-51
2023/07/17 06:52:33;;;;;;;11.05;2.72;;;19.40;88.30;;;;;;4134235;28;20508;-50
2023/07/17 06:54:35;;;;;;;9.70;3.33;;;19.40;88.30;;;;;;4132993;28;20121;-50
2023/07/17 06:56:57;;;;;;;8.57;2.42;;;19.40;87.80;;;;;;4133907;28;20057;-50
2023/07/17 06:58:59;;;;;;;7.18;2.35;;;19.50;88.10;;;;;;4133531;28;20078;-50
2023/07/17 07:01:03;;;;;;;6.32;2.25;;;19.50;87.90;;;;;;4134385;28;20556;-51
2023/07/17 07:03:05;;;;;;;8.30;2.25;;;19.60;88.00;;;;;;4134044;28;20046;-51
2023/07/17 07:05:08;;;;;;;8.80;2.33;;;19.60;87.70;;;;;;4132888;28;20054;-56
2023/07/17 07:07:11;;;;;;;9.00;2.80;;;19.70;87.90;;;;;;4134064;28;20137;-51
2023/07/17 07:09:13;;;;;;;8.32;2.00;;;19.80;87.30;;;;;;4130616;28;20038;-56
2023/07/17 07:11:15;;;;;;;14.57;3.30;;;19.90;87.20;;;;;;4133730;28;20042;-50
2023/07/17 07:13:18;;;;;;;4.72;1.95;;;20.00;86.20;;;;;;4123495;28;20473;-50
2023/07/17 07:15:20;;;;;;;7.60;2.50;;;20.20;85.90;;;;;;4129509;28;20049;-51
2023/07/17 07:17:22;;;;;;;6.25;2.28;;;20.40;85.80;;;;;;4133232;28;20116;-50
2023/07/17 07:19:24;;;;;;;7.95;2.72;;;20.50;85.50;;;;;;4133386;28;20400;-50
2023/07/17 07:21:27;;;;;;;7.57;2.28;;;20.60;85.10;;;;;;4133580;28;20042;-50
2023/07/17 07:23:30;;;;;;;9.10;3.05;;;20.60;85.00;;;;;;4133770;28;20077;-50
2023/07/17 07:25:33;;;;;;;7.45;2.58;;;20.70;85.00;;;;;;4132199;28;20042;-50
2023/07/17 07:27:35;;;;;;;9.07;2.53;;;20.70;84.70;;;;;;4133509;28;20162;-50
2023/07/17 07:29:37;;;;;;;8.05;2.85;;;20.90;84.10;;;;;;4133340;28;20046;-49
2023/07/17 07:31:40;;;;;;;10.18;2.60;;;20.90;83.20;;;;;;4132869;28;20189;-50
2023/07/17 07:33:42;;;;;;;9.00;2.55;;;21.10;83.90;;;;;;4133539;28;20047;-50
2023/07/17 07:35:44;;;;;;;9.65;2.70;;;21.10;82.50;;;;;;4132402;28;20133;-49
2023/07/17 07:37:46;;;;;;;12.25;2.60;;;21.10;82.40;;;;;;4133486;28;20261;-50
2023/07/17 07:39:49;;;;;;;7.03;2.65;;;21.40;82.30;;;;;;4133329;28;20060;-50
2023/07/17 07:41:52;;;;;;;9.15;2.40;;;21.40;81.50;;;;;;4116006;28;20058;-49
2023/07/17 07:43:54;;;;;;;11.10;2.90;;;21.50;81.40;;;;;;4133272;28;20057;-49
2023/07/17 07:45:56;;;;;;;10.02;3.13;;;21.60;81.20;;;;;;4131679;28;20501;-49
2023/07/17 07:47:58;;;;;;;10.18;3.75;;;21.80;81.20;;;;;;4115633;28;20113;-49
2023/07/17 07:50:00;;;;;;;5.90;2.72;;;21.80;81.80;;;;;;4132682;28;20057;-50
2023/07/17 07:52:03;;;;;;;9.05;2.75;;;21.80;80.60;;;;;;4132835;28;20046;-49
2023/07/17 07:54:06;;;;;;;10.82;3.05;;;21.80;80.10;;;;;;4133338;28;20047;-49
2023/07/17 07:56:09;;;;;;;11.57;2.97;;;21.90;79.70;;;;;;4131990;28;20050;-49
2023/07/17 07:58:11;;;;;;;12.02;2.95;;;21.80;79.30;;;;;;4133169;28;20441;-50
2023/07/17 08:00:14;;;;;;;9.20;3.63;;;21.80;79.40;;;;;;4132695;28;20046;-52
2023/07/17 08:02:17;;;;;;;11.60;3.75;;;21.80;79.40;;;;;;4132869;28;20153;-52
2023/07/17 08:04:19;;;;;;;10.52;4.43;;;21.90;79.20;;;;;;4133136;28;20078;-50
2023/07/17 08:06:21;;;;;;;10.15;4.25;;;22.00;79.00;;;;;;4131844;28;20038;-49
2023/07/17 08:08:23;;;;;;;12.23;3.35;;;22.10;78.20;;;;;;4132888;28;20125;-50
2023/07/17 08:10:25;;;;;;;8.40;3.53;;;22.10;77.00;;;;;;4132839;28;20137;-49
2023/07/17 08:12:29;;;;;;;5.72;2.78;;;22.10;77.30;;;;;;4132553;28;20042;-47
2023/07/17 08:14:31;;;;;;;8.55;3.17;;;22.20;77.30;;;;;;4116367;28;20050;-48
2023/07/17 08:16:33;;;;;;;9.45;3.78;;;22.20;77.60;;;;;;4118755;28;20054;-48
2023/07/17 08:18:35;;;;;;;10.27;2.83;;;22.40;78.10;;;;;;4132681;28;20082;-47
2023/07/17 08:20:37;;;;;;;7.72;3.40;;;22.40;76.90;;;;;;4124647;28;20051;-48
2023/07/17 08:22:39;;;;;;;11.25;3.42;;;22.50;77.10;;;;;;4129891;28;20054;-47
2023/07/17 08:24:41;;;;;;;12.82;3.38;;;22.40;76.80;;;;;;4131685;28;20049;-48
2023/07/17 08:26:44;;;;;;;9.02;3.30;;;22.50;76.90;;;;;;4132288;28;20126;-50
2023/07/17 08:28:47;;;;;;;6.63;2.45;;;22.40;77.30;;;;;;4132057;28;20046;-50
2023/07/17 08:30:50;;;;;;;10.82;2.85;;;22.50;76.50;;;;;;4132699;28;20042;-50
2023/07/17 08:32:53;;;;;;;7.40;2.70;;;22.60;76.30;;;;;;4132503;28;20481;-50
2023/07/17 08:34:56;;;;;;;7.47;2.83;;;22.50;76.40;;;;;;4131565;28;20050;-50
2023/07/17 08:36:58;;;;;;;6.72;2.50;;;22.50;76.20;;;;;;4132115;28;20521;-50
2023/07/17 08:39:00;;;;;;;10.75;2.95;;;22.60;75.80;;;;;;4132426;28;20052;-50
2023/07/17 08:41:02;;;;;;;9.77;2.40;;;22.60;76.40;;;;;;4132730;28;20155;-47
2023/07/17 08:43:06;;;;;;;8.55;2.70;;;22.70;75.90;;;;;;4131877;28;20053;-54
2023/07/17 08:45:10;;;;;;;7.63;2.85;;;22.60;75.50;;;;;;4131363;28;20050;-48
2023/07/17 08:47:12;;;;;;;6.43;2.47;;;22.50;76.30;;;;;;4132123;28;20093;-48
2023/07/17 08:49:16;;;;;;;8.85;2.97;;;22.50;76.00;;;;;;4132136;28;20057;-47
2023/07/17 08:51:21;;;;;;;7.55;3.42;;;22.60;76.40;;;;;;4132430;28;20054;-47
2023/07/17 08:53:25;;;;;;;;;;;22.40;75.40;;;;;;4132838;28;20069;-47
2023/07/17 08:55:32;;;;;;;7.32;2.85;;;22.40;75.90;;;;;;4131454;28;20024;-49
2023/07/17 08:57:35;;;;;;;6.75;2.85;;;22.60;76.10;;;;;;4131755;28;20469;-49
2023/07/17 08:59:37;;;;;;;6.75;3.13;;;22.60;75.20;;;;;;4131906;28;20469;-48
2023/07/17 09:01:41;;;;;;;8.55;3.63;;;22.70;75.50;;;;;;4132074;28;20050;-48
2023/07/17 09:03:43;;;;;;;9.02;3.95;;;22.40;75.70;;;;;;4121650;28;20098;-48
2023/07/17 09:05:45;;;;;;;9.23;3.75;;;22.50;76.00;;;;;;4131175;28;20042;-49
2023/07/17 09:07:47;;;;;;;9.05;2.97;;;22.60;75.60;;;;;;4131864;28;20088;-47
2023/07/17 09:10:12;;;;;;;8.57;3.95;;;22.70;74.50;;;;;;4131831;28;20080;-50
2023/07/17 09:12:17;;;;;;;19.42;6.13;;;22.80;74.70;;;;;;4131781;28;20050;-51
2023/07/17 09:14:20;;;;;;;;;;;22.80;75.10;;;;;;4132540;28;20186;-50
2023/07/17 09:16:24;;;;;;;7.38;3.83;;;22.90;74.50;;;;;;4131195;28;20285;-50
2023/07/17 09:18:29;;;;;;;14.07;4.38;;;23.00;74.70;;;;;;4131846;28;20070;-50
2023/07/17 09:20:31;;;;;;;8.85;2.88;;;23.40;74.00;;;;;;4121076;28;20122;-50
2023/07/17 09:22:33;;;;;;;8.05;2.80;;;23.50;73.20;;;;;;4131937;28;20073;-50
2023/07/17 09:24:36;;;;;;;4.93;2.65;;;23.40;73.10;;;;;;4131563;28;20405;-50
2023/07/17 09:26:39;;;;;;;7.00;2.95;;;23.40;73.30;;;;;;4130798;28;20417;-50
2023/07/17 09:28:50;;;;;;;9.57;2.60;;;23.30;72.70;;;;;;4131852;28;20053;-50
2023/07/17 09:31:00;;;;;;;7.10;2.50;;;23.50;73.30;;;;;;4132305;28;20046;-52
2023/07/17 09:33:07;;;;;;;5.38;2.70;;;23.60;72.20;;;;;;4133090;28;20049;-49
2023/07/17 09:35:11;;;;;;;6.18;2.38;;;23.50;71.70;;;;;;4130956;28;20486;-51
2023/07/17 09:37:13;;;;;;;8.57;2.97;;;23.40;71.30;;;;;;4132126;28;20046;-55
2023/07/17 09:39:15;;;;;;;8.52;2.50;;;23.30;72.20;;;;;;4131840;28;20042;-52
2023/07/17 09:41:19;;;;;;;8.13;2.47;;;23.40;71.60;;;;;;4130740;28;20038;-51
2023/07/17 09:43:31;;;;;;;4.68;2.20;;;23.50;71.20;;;;;;4131850;28;20096;-51
2023/07/17 09:45:34;;;;;;;4.90;2.47;;;23.40;71.80;;;;;;4130489;28;20575;-51
2023/07/17 09:47:36;;;;;;;6.50;2.65;;;23.40;71.80;;;;;;4131674;28;20134;-51
2023/07/17 09:49:39;;;;;;;7.32;2.85;;;23.30;72.00;;;;;;4131341;28;20046;-51
2023/07/17 09:51:44;;;;;;;6.13;2.40;;;23.40;72.00;;;;;;4131342;28;20146;-50
2023/07/17 09:53:46;;;;;;;;;;;23.30;71.90;;;;;;4131906;28;20046;-51
2023/07/17 09:55:51;;;;;;;6.95;3.08;;;23.50;72.00;;;;;;4130192;28;19968;-50
2023/07/17 09:57:57;;;;;;;11.68;2.60;;;23.40;71.80;;;;;;4131418;28;20081;-48
2023/07/17 10:00:05;;;;;;;6.07;2.58;;;23.50;71.50;;;;;;4132094;28;20516;-48
2023/07/17 10:02:15;;;;;;;6.10;2.28;;;23.70;71.30;;;;;;4132761;28;20046;-48
2023/07/17 10:04:25;;;;;;;5.05;2.58;;;23.70;70.80;;;;;;4131504;28;20133;-56
2023/07/17 10:06:28;;;;;;;6.68;2.85;;;23.80;70.80;;;;;;4130355;28;20047;-50
2023/07/17 10:08:31;;;;;;;7.68;2.72;;;23.90;70.10;;;;;;4131571;28;20425;-51
2023/07/17 10:10:34;;;;;;;6.47;2.53;;;24.10;70.50;;;;;;4126864;28;20078;-51
2023/07/17 10:12:37;;;;;;;5.07;2.42;;;24.20;69.80;;;;;;4130876;28;20047;-51
2023/07/17 10:14:40;;;;;;;5.85;2.50;;;23.90;69.90;;;;;;4131116;28;20050;-51
2023/07/17 10:16:42;;;;;;;5.65;2.40;;;23.90;70.40;;;;;;4130093;28;20097;-50
2023/07/17 10:18:49;;;;;;;5.32;2.17;;;24.00;70.30;;;;;;4130206;28;20054;-51
2023/07/17 10:20:52;;;;;;;6.10;2.53;;;23.90;69.80;;;;;;4113802;28;20047;-51
2023/07/17 10:22:54;;;;;;;5.90;2.45;;;23.60;70.00;;;;;;4131223;28;20045;-51
2023/07/17 10:24:57;;;;;;;8.68;2.70;;;23.70;70.60;;;;;;4130435;28;20508;-52
2023/07/17 10:27:01;;;;;;;9.85;2.38;;;23.90;70.60;;;;;;4130903;28;20058;-54
2023/07/17 10:29:04;;;;;;;6.13;2.67;;;24.10;70.00;;;;;;4131271;28;20398;-51
2023/07/17 10:31:11;;;;;;;3.78;1.92;;;24.10;69.30;;;;;;4131513;28;20053;-51
2023/07/17 10:33:15;;;;;;;5.40;2.30;;;24.10;69.70;;;;;;4133457;28;20078;-50
2023/07/17 10:35:20;;;;;;;7.20;2.50;;;24.10;70.60;;;;;;4132228;28;20057;-53
2023/07/17 10:37:41;;;;;;;6.50;2.63;;;24.40;70.40;;;;;;4131456;28;20108;-56
2023/07/17 10:39:43;;;;;;;9.73;2.50;;;24.50;69.20;;;;;;4115261;28;20490;-50
2023/07/17 10:41:49;;;;;;;7.88;2.45;;;24.60;69.50;;;;;;4124292;28;20129;-50